1918 NOT_NAMED (1918292N11145)


IBTrACS version v04r00. Visit IBTrACS website for data access.
Please direct all questions to the IBTrACS Q and A forum

Storm track - Intensity - Wind Radii - Intensity Data - Source Data - All data

Summary Information

Storm ID 1918292N11145
Start Oct 18 22Z
Landfall Oct 23 12Z
End Oct 23 22Z
ATCF IDs
Track status Best track data.

Storm track plot

Map of storm track

Intensity plots

No Intensity information for this storm


Radial wind information

No radial wind information for this storm


Position and Intensity Table

BASIN ISO_TIME_________ NATURE LAT LON
degrees north degrees east
WP 1918-10-18 22:00:00 NR 10.70 144.70
WP 1918-10-19 00:00:00 NR 10.75 144.25
WP 03:00:00 NR 10.82 143.58
WP 06:00:00 NR 10.89 142.91
WP 09:00:00 NR 10.97 142.23
WP 10:00:00 NR 11.00 142.00
WP 12:00:00 NR 11.06 141.54
WP 15:00:00 NR 11.15 140.84
WP 18:00:00 NR 11.25 140.14
WP 21:00:00 NR 11.36 139.43
WP 22:00:00 NR 11.40 139.20
WP 1918-10-20 00:00:00 NR 11.48 138.73
WP 03:00:00 NR 11.61 138.02
WP 06:00:00 NR 11.74 137.32
WP 09:00:00 NR 11.86 136.63
WP 10:00:00 NR 11.90 136.40
WP 12:00:00 NR 11.97 135.95
WP 15:00:00 NR 12.07 135.29
WP 18:00:00 NR 12.16 134.65
WP 21:00:00 NR 12.26 134.01
WP 22:00:00 NR 12.30 133.80
WP 1918-10-21 00:00:00 NR 12.37 133.38
WP 03:00:00 NR 12.47 132.75
WP 06:00:00 NR 12.60 132.13
WP 09:00:00 NR 12.74 131.51
WP 10:00:00 NR 12.80 131.30
WP 12:00:00 NR 12.92 130.87
WP 15:00:00 NR 13.13 130.23
WP 18:00:00 NR 13.36 129.60
WP 21:00:00 NR 13.61 128.99
WP 22:00:00 NR 13.70 128.80
WP 1918-10-22 00:00:00 NR 13.87 128.42
WP 03:00:00 NR 14.15 127.89
WP 06:00:00 NR 14.43 127.37
WP 09:00:00 NR 14.71 126.87
WP 10:00:00 NR 14.80 126.70
WP 12:00:00 NR 14.95 126.37
WP 15:00:00 NR 15.16 125.89
WP 18:00:00 NR 15.40 125.40
WP 21:00:00 NR 15.69 124.88
WP 22:00:00 NR 15.80 124.70
WP 1918-10-23 00:00:00 NR 16.06 124.30
WP 03:00:00 NR 16.50 123.67
WP 06:00:00 NR 16.99 123.03
WP 09:00:00 NR 17.52 122.40
WP 10:00:00 NR 17.70 122.20
WP 12:00:00 NR 18.06 121.81
WP 15:00:00 NR 18.61 121.27
WP 18:00:00 NR 19.16 120.76
WP 21:00:00 NR 19.72 120.26
WP 22:00:00 NR 19.90 120.10

Source Information

Agency Information
USA
TOKYO
CMA
HKO
NEWDELHI
REUNION
BOM
NADI
WELLINGTON
DS824
TD9636 cons_worldwide_trop_cyclone_18710101-19891231-003:Line=5836
TD9635
NEUMANN
MLC

All available IBTrACS Data

SEASON BASIN SUBBASIN ISO_TIME_________ NATURE LAT LON DIST2LAND LANDFALL IFLAG USA SSHS TD9636 LAT TD9636 LON TD9636 STAGE STORM SPEED STORM DIR
Year degrees north degrees east km km 1 degrees north degrees east kts degrees
1918 WP MM 1918-10-18 22:00:00 NR 10.70 144.70 1449 1449 __________O___ -1 10.70 144.70 7 13 276
1918 WP MM 1918-10-19 00:00:00 NR 10.75 144.25 1456 1469 __________P___ -1 10.75 144.25 7 13 276
1918 WP MM 03:00:00 NR 10.82 143.58 1483 1485 __________P___ -1 10.82 143.58 7 13 276
1918 WP MM 06:00:00 NR 10.89 142.91 1494 1475 __________P___ -1 10.89 142.91 7 13 277
1918 WP MM 09:00:00 NR 10.97 142.23 1479 1473 __________P___ -1 10.97 142.23 7 14 277
1918 WP MM 10:00:00 NR 11.00 142.00 1473 1461 __________O___ -1 11.00 142.00 7 14 277
1918 WP MM 12:00:00 NR 11.06 141.54 1469 1443 __________P___ -1 11.06 141.54 7 14 278
1918 WP MM 15:00:00 NR 11.15 140.84 1449 1426 __________P___ -1 11.15 140.84 7 14 278
1918 WP MM 18:00:00 NR 11.25 140.14 1433 1412 __________P___ -1 11.25 140.14 7 14 279
1918 WP MM 21:00:00 NR 11.36 139.43 1419 1412 __________P___ -1 11.36 139.43 7 14 279
1918 WP MM 22:00:00 NR 11.40 139.20 1412 1391 __________O___ -1 11.40 139.20 7 14 280
1918 WP MM 1918-10-20 00:00:00 NR 11.48 138.73 1391 1319 __________P___ -1 11.48 138.73 7 14 280
1918 WP MM 03:00:00 NR 11.61 138.02 1319 1246 __________P___ -1 11.61 138.02 7 14 280
1918 WP MM 06:00:00 NR 11.74 137.32 1246 1177 __________P___ -1 11.74 137.32 7 14 281
1918 WP MM 09:00:00 NR 11.86 136.63 1177 1155 __________P___ -1 11.86 136.63 7 14 280
1918 WP MM 10:00:00 NR 11.90 136.40 1155 1116 __________O___ -1 11.90 136.40 7 13 279
1918 WP MM 12:00:00 NR 11.97 135.95 1116 1042 __________P___ -1 11.97 135.95 7 13 279
1918 WP MM 15:00:00 NR 12.07 135.29 1042 968 __________P___ -1 12.07 135.29 7 13 279
1918 WP MM 18:00:00 NR 12.16 134.65 968 905 __________P___ -1 12.16 134.65 7 13 279
1918 WP MM 21:00:00 NR 12.26 134.01 905 883 __________P___ -1 12.26 134.01 7 13 279
1918 WP MM 22:00:00 NR 12.30 133.80 883 842 __________O___ -1 12.30 133.80 7 13 279
1918 WP MM 1918-10-21 00:00:00 NR 12.37 133.38 842 770 __________P___ -1 12.37 133.38 7 13 280
1918 WP MM 03:00:00 NR 12.47 132.75 770 709 __________P___ -1 12.47 132.75 7 12 281
1918 WP MM 06:00:00 NR 12.60 132.13 709 649 __________P___ -1 12.60 132.13 7 12 283
1918 WP MM 09:00:00 NR 12.74 131.51 649 631 __________P___ -1 12.74 131.51 7 13 284
1918 WP MM 10:00:00 NR 12.80 131.30 631 591 __________O___ -1 12.80 131.30 7 13 286
1918 WP MM 12:00:00 NR 12.92 130.87 591 520 __________P___ -1 12.92 130.87 7 13 288
1918 WP MM 15:00:00 NR 13.13 130.23 520 461 __________P___ -1 13.13 130.23 7 13 290
1918 WP MM 18:00:00 NR 13.36 129.60 464 410 __________P___ -1 13.36 129.60 7 13 292
1918 WP MM 21:00:00 NR 13.61 128.99 410 395 __________P___ -1 13.61 128.99 7 13 293
1918 WP MM 22:00:00 NR 13.70 128.80 395 367 __________O___ -1 13.70 128.80 2 12 295
1918 WP MM 1918-10-22 00:00:00 NR 13.87 128.42 367 335 __________P___ -1 13.87 128.42 2 12 297
1918 WP MM 03:00:00 NR 14.15 127.89 335 319 __________P___ -1 14.15 127.89 2 12 299
1918 WP MM 06:00:00 NR 14.43 127.37 319 283 __________P___ -1 14.43 127.37 2 11 300
1918 WP MM 09:00:00 NR 14.71 126.87 283 267 __________P___ -1 14.71 126.87 2 11 300
1918 WP MM 10:00:00 NR 14.80 126.70 267 242 __________O___ -1 14.80 126.70 2 11 297
1918 WP MM 12:00:00 NR 14.95 126.37 242 210 __________P___ -1 14.95 126.37 2 10 295
1918 WP MM 15:00:00 NR 15.16 125.89 217 194 __________P___ -1 15.16 125.89 2 10 296
1918 WP MM 18:00:00 NR 15.40 125.40 196 188 __________P___ -1 15.40 125.40 2 11 298
1918 WP MM 21:00:00 NR 15.69 124.88 200 197 __________P___ -1 15.69 124.88 2 12 301
1918 WP MM 22:00:00 NR 15.80 124.70 206 204 __________O___ -1 15.80 124.70 2 13 304
1918 WP MM 1918-10-23 00:00:00 NR 16.06 124.30 211 135 __________P___ -1 16.06 124.30 2 15 305
1918 WP MM 03:00:00 NR 16.50 123.67 135 53 __________P___ -1 16.50 123.67 2 15 308
1918 WP MM 06:00:00 NR 16.99 123.03 53 15 __________P___ -1 16.99 123.03 2 16 310
1918 WP MM 09:00:00 NR 17.52 122.40 22 10 __________P___ -1 17.52 122.40 2 16 312
1918 WP MM 10:00:00 NR 17.70 122.20 10 0 __________O___ -1 17.70 122.20 2 16 314
1918 WP MM 12:00:00 NR 18.06 121.81 0 0 __________P___ -1 18.06 121.81 2 15 316
1918 WP MM 15:00:00 NR 18.61 121.27 11 11 __________P___ -1 18.61 121.27 2 15 318
1918 WP MM 18:00:00 NR 19.16 120.76 67 67 __________P___ -1 19.16 120.76 2 15 319
1918 WP MM 21:00:00 NR 19.72 120.26 133 138 __________P___ -1 19.72 120.26 2 15 320
1918 WP MM 22:00:00 NR 19.90 120.10 162 __________O___ -1 19.90 120.10 7 15 320